sensor_id;sensor_type;location;lat;lon;timestamp;pressure;altitude;pressure_sealevel;temperature;humidity
64352;BME280;50680;52.626;-8.668;2023-05-08T10:48:23;101251.09;;;18.04;100.00
64352;BME280;50680;52.626;-8.668;2023-05-08T10:51:12;101246.84;;;18.13;100.00
64352;BME280;50680;52.626;-8.668;2023-05-08T10:53:47;101242.59;;;18.42;100.00
64352;BME280;50680;52.626;-8.668;2023-05-08T10:56:16;101251.00;;;18.48;100.00
64352;BME280;50680;52.626;-8.668;2023-05-08T10:58:43;101249.91;;;18.50;100.00
64352;BME280;50680;52.626;-8.668;2023-05-08T11:01:11;101261.63;;;18.48;100.00
64352;BME280;50680;52.626;-8.668;2023-05-08T11:03:45;101234.69;;;18.52;100.00
64352;BME280;50680;52.626;-8.668;2023-05-08T11:06:13;101243.56;;;18.84;100.00
64352;BME280;50680;52.626;-8.668;2023-05-08T11:11:22;101247.13;;;19.75;100.00
64352;BME280;50680;52.626;-8.668;2023-05-08T11:13:54;101239.56;;;20.29;100.00
64352;BME280;50680;52.626;-8.668;2023-05-08T11:19:21;101247.78;;;21.12;100.00
64352;BME280;50680;52.626;-8.668;2023-05-08T11:24:51;101241.91;;;21.64;100.00
64352;BME280;50680;52.626;-8.668;2023-05-08T11:27:35;101237.44;;;21.65;100.00
64352;BME280;50680;52.626;-8.668;2023-05-08T11:30:21;101235.44;;;21.67;100.00
64352;BME280;50680;52.626;-8.668;2023-05-08T11:35:54;101240.78;;;21.67;100.00
64352;BME280;50680;52.626;-8.668;2023-05-08T11:41:22;101231.16;;;21.92;100.00
64352;BME280;50680;52.626;-8.668;2023-05-08T11:49:15;101222.16;;;21.75;100.00
64352;BME280;50680;52.626;-8.668;2023-05-08T11:51:52;101226.53;;;21.58;100.00
64352;BME280;50680;52.626;-8.668;2023-05-08T11:54:21;101226.00;;;21.45;100.00
64352;BME280;50680;52.626;-8.668;2023-05-08T11:56:49;101228.72;;;21.35;100.00
64352;BME280;50680;52.626;-8.668;2023-05-08T11:59:17;101227.72;;;21.18;100.00
64352;BME280;50680;52.626;-8.668;2023-05-08T12:01:47;101228.06;;;20.95;100.00
64352;BME280;50680;52.626;-8.668;2023-05-08T12:04:45;101226.28;;;20.86;100.00
64352;BME280;50680;52.626;-8.668;2023-05-08T12:07:12;101226.06;;;20.60;100.00
64352;BME280;50680;52.626;-8.668;2023-05-08T12:09:39;101223.22;;;19.44;100.00
64352;BME280;50680;52.626;-8.668;2023-05-08T12:12:06;101228.38;;;18.95;100.00
64352;BME280;50680;52.626;-8.668;2023-05-08T12:14:33;101225.47;;;18.77;100.00
64352;BME280;50680;52.626;-8.668;2023-05-08T12:17:01;101217.59;;;18.66;100.00
64352;BME280;50680;52.626;-8.668;2023-05-08T12:19:28;101240.53;;;18.67;100.00
64352;BME280;50680;52.626;-8.668;2023-05-08T12:21:55;101234.66;;;18.73;100.00
64352;BME280;50680;52.626;-8.668;2023-05-08T12:24:23;101236.13;;;19.08;100.00
64352;BME280;50680;52.626;-8.668;2023-05-08T12:26:54;101251.16;;;19.29;100.00
64352;BME280;50680;52.626;-8.668;2023-05-08T12:29:22;101245.75;;;19.40;100.00
64352;BME280;50680;52.626;-8.668;2023-05-08T12:31:50;101241.31;;;19.50;100.00
64352;BME280;50680;52.626;-8.668;2023-05-08T12:34:18;101250.41;;;19.58;100.00
64352;BME280;50680;52.626;-8.668;2023-05-08T12:36:45;101235.84;;;19.52;100.00
64352;BME280;50680;52.626;-8.668;2023-05-08T12:39:17;101248.16;;;19.43;100.00
64352;BME280;50680;52.626;-8.668;2023-05-08T12:41:51;101256.13;;;19.43;100.00
64352;BME280;50680;52.626;-8.668;2023-05-08T12:44:22;101255.69;;;19.38;100.00
64352;BME280;50680;52.626;-8.668;2023-05-08T12:46:51;101257.91;;;19.33;100.00
64352;BME280;50680;52.626;-8.668;2023-05-08T12:49:28;101246.13;;;19.26;100.00
64352;BME280;50680;52.626;-8.668;2023-05-08T12:52:06;101258.00;;;19.62;100.00
64352;BME280;50680;52.626;-8.668;2023-05-08T12:54:34;101245.31;;;20.05;100.00
64352;BME280;50680;52.626;-8.668;2023-05-08T12:57:09;101249.63;;;20.45;100.00
64352;BME280;50680;52.626;-8.668;2023-05-08T12:59:36;101245.41;;;20.72;100.00
64352;BME280;50680;52.626;-8.668;2023-05-08T13:02:03;101233.31;;;20.77;100.00
64352;BME280;50680;52.626;-8.668;2023-05-08T13:04:35;101236.94;;;20.86;100.00
64352;BME280;50680;52.626;-8.668;2023-05-08T13:07:02;101231.59;;;20.96;100.00
64352;BME280;50680;52.626;-8.668;2023-05-08T13:09:29;101231.63;;;20.86;100.00
64352;BME280;50680;52.626;-8.668;2023-05-08T13:11:56;101228.00;;;20.77;100.00
64352;BME280;50680;52.626;-8.668;2023-05-08T13:14:23;101226.34;;;20.66;100.00
64352;BME280;50680;52.626;-8.668;2023-05-08T13:16:50;101233.09;;;20.51;100.00
64352;BME280;50680;52.626;-8.668;2023-05-08T13:19:17;101226.25;;;20.39;100.00
64352;BME280;50680;52.626;-8.668;2023-05-08T13:21:44;101228.50;;;20.34;100.00
64352;BME280;50680;52.626;-8.668;2023-05-08T13:24:13;101222.16;;;20.44;100.00
64352;BME280;50680;52.626;-8.668;2023-05-08T13:26:40;101220.03;;;20.48;100.00
64352;BME280;50680;52.626;-8.668;2023-05-08T13:29:07;101226.78;;;20.52;100.00
64352;BME280;50680;52.626;-8.668;2023-05-08T13:31:34;101233.34;;;20.67;100.00
64352;BME280;50680;52.626;-8.668;2023-05-08T13:34:01;101226.03;;;20.79;100.00
64352;BME280;50680;52.626;-8.668;2023-05-08T13:36:28;101229.69;;;20.69;100.00
64352;BME280;50680;52.626;-8.668;2023-05-08T13:38:54;101231.13;;;20.53;100.00
64352;BME280;50680;52.626;-8.668;2023-05-08T13:41:22;101240.97;;;20.33;100.00
64352;BME280;50680;52.626;-8.668;2023-05-08T13:43:49;101234.66;;;20.05;100.00
64352;BME280;50680;52.626;-8.668;2023-05-08T13:46:16;101241.09;;;19.83;100.00
64352;BME280;50680;52.626;-8.668;2023-05-08T13:48:43;101238.00;;;19.78;100.00
64352;BME280;50680;52.626;-8.668;2023-05-08T13:51:10;101246.28;;;19.84;100.00
64352;BME280;50680;52.626;-8.668;2023-05-08T13:53:37;101238.19;;;20.05;100.00
64352;BME280;50680;52.626;-8.668;2023-05-08T13:56:04;101244.34;;;20.25;100.00
64352;BME280;50680;52.626;-8.668;2023-05-08T13:58:31;101240.25;;;20.41;100.00
64352;BME280;50680;52.626;-8.668;2023-05-08T14:00:58;101236.31;;;20.45;100.00
64352;BME280;50680;52.626;-8.668;2023-05-08T14:03:39;101231.97;;;20.44;100.00
64352;BME280;50680;52.626;-8.668;2023-05-08T14:06:06;101239.81;;;20.65;100.00
64352;BME280;50680;52.626;-8.668;2023-05-08T14:08:33;101231.44;;;20.40;100.00
64352;BME280;50680;52.626;-8.668;2023-05-08T14:11:02;101235.63;;;20.43;100.00
64352;BME280;50680;52.626;-8.668;2023-05-08T14:13:29;101228.16;;;20.56;100.00
64352;BME280;50680;52.626;-8.668;2023-05-08T14:15:56;101233.91;;;20.61;100.00
64352;BME280;50680;52.626;-8.668;2023-05-08T14:18:23;101232.13;;;20.99;100.00
64352;BME280;50680;52.626;-8.668;2023-05-08T14:20:50;101236.25;;;21.21;100.00
64352;BME280;50680;52.626;-8.668;2023-05-08T14:23:23;101224.16;;;21.55;100.00
64352;BME280;50680;52.626;-8.668;2023-05-08T14:25:50;101222.59;;;21.52;100.00
64352;BME280;50680;52.626;-8.668;2023-05-08T14:28:16;101221.19;;;21.58;100.00
64352;BME280;50680;52.626;-8.668;2023-05-08T14:30:43;101218.28;;;21.51;100.00
64352;BME280;50680;52.626;-8.668;2023-05-08T14:33:10;101222.69;;;21.60;100.00
64352;BME280;50680;52.626;-8.668;2023-05-08T14:35:37;101224.53;;;21.78;100.00
64352;BME280;50680;52.626;-8.668;2023-05-08T14:38:03;101220.44;;;21.84;100.00
64352;BME280;50680;52.626;-8.668;2023-05-08T14:40:30;101215.34;;;21.45;100.00
64352;BME280;50680;52.626;-8.668;2023-05-08T14:42:57;101226.66;;;21.29;100.00
64352;BME280;50680;52.626;-8.668;2023-05-08T14:45:24;101215.50;;;20.78;100.00
64352;BME280;50680;52.626;-8.668;2023-05-08T14:47:51;101226.63;;;20.54;100.00
64352;BME280;50680;52.626;-8.668;2023-05-08T14:50:17;101222.16;;;20.35;100.00
64352;BME280;50680;52.626;-8.668;2023-05-08T14:52:44;101222.72;;;20.48;100.00
64352;BME280;50680;52.626;-8.668;2023-05-08T14:55:11;101220.22;;;20.27;100.00
64352;BME280;50680;52.626;-8.668;2023-05-08T14:57:39;101215.47;;;19.82;100.00
64352;BME280;50680;52.626;-8.668;2023-05-08T15:00:06;101223.78;;;19.48;100.00
64352;BME280;50680;52.626;-8.668;2023-05-08T15:02:33;101219.00;;;19.32;100.00
64352;BME280;50680;52.626;-8.668;2023-05-08T15:05:00;101217.34;;;19.41;100.00
64352;BME280;50680;52.626;-8.668;2023-05-08T15:07:33;101224.84;;;19.86;100.00
64352;BME280;50680;52.626;-8.668;2023-05-08T15:10:01;101221.50;;;19.94;100.00
64352;BME280;50680;52.626;-8.668;2023-05-08T15:12:28;101219.53;;;19.76;100.00
64352;BME280;50680;52.626;-8.668;2023-05-08T15:14:58;101216.72;;;19.87;100.00
64352;BME280;50680;52.626;-8.668;2023-05-08T15:17:29;101209.44;;;19.89;100.00
64352;BME280;50680;52.626;-8.668;2023-05-08T15:19:55;101212.69;;;20.03;100.00
64352;BME280;50680;52.626;-8.668;2023-05-08T15:22:22;101214.34;;;20.14;100.00
64352;BME280;50680;52.626;-8.668;2023-05-08T15:24:50;101210.00;;;19.93;100.00
64352;BME280;50680;52.626;-8.668;2023-05-08T15:27:17;101206.25;;;19.96;100.00
64352;BME280;50680;52.626;-8.668;2023-05-08T15:29:44;101209.44;;;19.89;100.00
64352;BME280;50680;52.626;-8.668;2023-05-08T15:32:11;101212.09;;;19.89;100.00
64352;BME280;50680;52.626;-8.668;2023-05-08T15:34:38;101215.19;;;19.95;100.00
64352;BME280;50680;52.626;-8.668;2023-05-08T15:37:06;101209.75;;;19.86;100.00
64352;BME280;50680;52.626;-8.668;2023-05-08T15:39:34;101196.03;;;19.81;100.00
64352;BME280;50680;52.626;-8.668;2023-05-08T15:42:01;101196.69;;;20.03;100.00
64352;BME280;50680;52.626;-8.668;2023-05-08T15:44:30;101200.34;;;20.02;100.00
64352;BME280;50680;52.626;-8.668;2023-05-08T15:47:18;101197.53;;;20.13;100.00
64352;BME280;50680;52.626;-8.668;2023-05-08T15:49:44;101181.56;;;20.23;100.00
64352;BME280;50680;52.626;-8.668;2023-05-08T15:52:11;101193.25;;;20.59;100.00
64352;BME280;50680;52.626;-8.668;2023-05-08T15:54:40;101195.31;;;20.75;100.00
64352;BME280;50680;52.626;-8.668;2023-05-08T15:57:07;101194.78;;;20.72;100.00
64352;BME280;50680;52.626;-8.668;2023-05-08T15:59:34;101181.09;;;20.94;100.00
64352;BME280;50680;52.626;-8.668;2023-05-08T16:02:03;101180.97;;;21.14;100.00
64352;BME280;50680;52.626;-8.668;2023-05-08T16:04:30;101183.50;;;21.15;100.00
64352;BME280;50680;52.626;-8.668;2023-05-08T16:06:58;101176.41;;;21.06;100.00
64352;BME280;50680;52.626;-8.668;2023-05-08T16:09:25;101180.72;;;21.07;100.00
64352;BME280;50680;52.626;-8.668;2023-05-08T16:11:52;101188.91;;;20.68;100.00
64352;BME280;50680;52.626;-8.668;2023-05-08T16:14:19;101182.59;;;20.59;100.00
64352;BME280;50680;52.626;-8.668;2023-05-08T16:16:46;101191.03;;;20.45;100.00
64352;BME280;50680;52.626;-8.668;2023-05-08T16:19:13;101188.84;;;20.78;100.00
64352;BME280;50680;52.626;-8.668;2023-05-08T16:21:41;101193.66;;;21.02;100.00
64352;BME280;50680;52.626;-8.668;2023-05-08T16:24:10;101192.81;;;21.29;100.00
64352;BME280;50680;52.626;-8.668;2023-05-08T16:26:37;101188.56;;;21.09;100.00
64352;BME280;50680;52.626;-8.668;2023-05-08T16:29:04;101193.41;;;21.23;100.00
64352;BME280;50680;52.626;-8.668;2023-05-08T16:31:31;101204.00;;;21.15;100.00
64352;BME280;50680;52.626;-8.668;2023-05-08T16:33:57;101206.34;;;20.90;100.00
64352;BME280;50680;52.626;-8.668;2023-05-08T16:36:24;101212.81;;;20.88;100.00
64352;BME280;50680;52.626;-8.668;2023-05-08T16:38:52;101211.38;;;20.93;100.00
64352;BME280;50680;52.626;-8.668;2023-05-08T16:41:19;101211.91;;;20.97;100.00
64352;BME280;50680;52.626;-8.668;2023-05-08T16:43:46;101207.81;;;20.75;100.00
64352;BME280;50680;52.626;-8.668;2023-05-08T16:46:13;101203.34;;;20.65;100.00
64352;BME280;50680;52.626;-8.668;2023-05-08T16:48:40;101205.88;;;20.67;100.00
64352;BME280;50680;52.626;-8.668;2023-05-08T16:51:07;101216.50;;;20.57;100.00
64352;BME280;50680;52.626;-8.668;2023-05-08T16:53:34;101212.38;;;20.16;100.00
64352;BME280;50680;52.626;-8.668;2023-05-08T16:56:01;101216.03;;;20.05;100.00
64352;BME280;50680;52.626;-8.668;2023-05-08T16:58:28;101216.59;;;20.18;100.00
64352;BME280;50680;52.626;-8.668;2023-05-08T17:00:55;101229.47;;;20.33;100.00
64352;BME280;50680;52.626;-8.668;2023-05-08T17:03:21;101225.81;;;20.34;100.00
64352;BME280;50680;52.626;-8.668;2023-05-08T17:05:48;101234.47;;;20.55;100.00
64352;BME280;50680;52.626;-8.668;2023-05-08T17:08:15;101228.03;;;20.48;100.00
64352;BME280;50680;52.626;-8.668;2023-05-08T17:10:43;101231.28;;;20.42;100.00
64352;BME280;50680;52.626;-8.668;2023-05-08T17:13:09;101236.75;;;20.31;100.00
64352;BME280;50680;52.626;-8.668;2023-05-08T17:15:36;101230.03;;;20.26;100.00
64352;BME280;50680;52.626;-8.668;2023-05-08T17:18:03;101242.09;;;20.31;100.00
64352;BME280;50680;52.626;-8.668;2023-05-08T17:20:30;101233.69;;;20.16;100.00
64352;BME280;50680;52.626;-8.668;2023-05-08T17:22:57;101234.81;;;19.84;100.00
64352;BME280;50680;52.626;-8.668;2023-05-08T17:25:24;101244.00;;;19.70;100.00
64352;BME280;50680;52.626;-8.668;2023-05-08T17:27:51;101239.88;;;19.46;100.00
64352;BME280;50680;52.626;-8.668;2023-05-08T17:30:18;101240.31;;;19.51;100.00
64352;BME280;50680;52.626;-8.668;2023-05-08T17:32:44;101242.41;;;19.48;100.00
64352;BME280;50680;52.626;-8.668;2023-05-08T17:35:11;101240.44;;;19.40;100.00
64352;BME280;50680;52.626;-8.668;2023-05-08T17:37:38;101236.91;;;19.30;100.00
64352;BME280;50680;52.626;-8.668;2023-05-08T17:40:05;101239.44;;;19.31;100.00
64352;BME280;50680;52.626;-8.668;2023-05-08T17:42:33;101232.16;;;19.33;100.00
64352;BME280;50680;52.626;-8.668;2023-05-08T17:45:00;101233.69;;;19.26;100.00
64352;BME280;50680;52.626;-8.668;2023-05-08T17:47:30;101243.63;;;19.24;100.00
64352;BME280;50680;52.626;-8.668;2023-05-08T17:49:57;101235.84;;;19.02;100.00
64352;BME280;50680;52.626;-8.668;2023-05-08T17:52:24;101226.69;;;18.94;100.00
64352;BME280;50680;52.626;-8.668;2023-05-08T17:54:51;101223.59;;;18.68;100.00
64352;BME280;50680;52.626;-8.668;2023-05-08T17:57:18;101227.25;;;18.67;100.00
64352;BME280;50680;52.626;-8.668;2023-05-08T17:59:44;101218.69;;;18.42;100.00
64352;BME280;50680;52.626;-8.668;2023-05-08T18:02:11;101223.63;;;18.26;100.00
64352;BME280;50680;52.626;-8.668;2023-05-08T18:04:38;101226.13;;;18.07;100.00
64352;BME280;50680;52.626;-8.668;2023-05-08T18:07:05;101222.91;;;18.03;100.00
64352;BME280;50680;52.626;-8.668;2023-05-08T18:09:32;101220.88;;;17.95;100.00
64352;BME280;50680;52.626;-8.668;2023-05-08T18:11:59;101229.81;;;17.83;100.00
64352;BME280;50680;52.626;-8.668;2023-05-08T18:14:31;101222.50;;;17.75;100.00
64352;BME280;50680;52.626;-8.668;2023-05-08T18:16:59;101224.56;;;17.60;100.00
64352;BME280;50680;52.626;-8.668;2023-05-08T18:19:26;101222.69;;;17.40;100.00
64352;BME280;50680;52.626;-8.668;2023-05-08T18:21:53;101219.44;;;17.36;100.00
64352;BME280;50680;52.626;-8.668;2023-05-08T18:24:19;101228.47;;;17.11;100.00
64352;BME280;50680;52.626;-8.668;2023-05-08T18:26:48;101226.44;;;17.03;100.00
64352;BME280;50680;52.626;-8.668;2023-05-08T18:29:17;101233.53;;;16.91;100.00
64352;BME280;50680;52.626;-8.668;2023-05-08T18:31:44;101234.38;;;16.92;100.00
64352;BME280;50680;52.626;-8.668;2023-05-08T18:34:11;101235.34;;;16.91;100.00
64352;BME280;50680;52.626;-8.668;2023-05-08T18:36:38;101224.59;;;16.81;100.00
64352;BME280;50680;52.626;-8.668;2023-05-08T18:39:05;101235.91;;;16.72;100.00
64352;BME280;50680;52.626;-8.668;2023-05-08T18:41:32;101235.25;;;16.57;100.00
64352;BME280;50680;52.626;-8.668;2023-05-08T18:43:58;101241.88;;;16.51;100.00
64352;BME280;50680;52.626;-8.668;2023-05-08T18:46:30;101244.41;;;16.53;100.00
64352;BME280;50680;52.626;-8.668;2023-05-08T18:48:57;101244.63;;;16.50;100.00
64352;BME280;50680;52.626;-8.668;2023-05-08T18:51:24;101243.41;;;16.43;100.00
64352;BME280;50680;52.626;-8.668;2023-05-08T18:53:51;101244.13;;;16.45;100.00
64352;BME280;50680;52.626;-8.668;2023-05-08T18:56:18;101254.22;;;16.40;100.00
64352;BME280;50680;52.626;-8.668;2023-05-08T18:58:45;101253.63;;;16.36;100.00
64352;BME280;50680;52.626;-8.668;2023-05-08T19:01:12;101248.72;;;16.43;100.00
64352;BME280;50680;52.626;-8.668;2023-05-08T19:03:39;101251.69;;;16.38;100.00
64352;BME280;50680;52.626;-8.668;2023-05-08T19:06:06;101248.72;;;16.43;100.00
64352;BME280;50680;52.626;-8.668;2023-05-08T19:08:32;101252.19;;;16.32;100.00
64352;BME280;50680;52.626;-8.668;2023-05-08T19:10:59;101245.06;;;16.32;100.00
64352;BME280;50680;52.626;-8.668;2023-05-08T19:13:26;101235.97;;;16.12;100.00
64352;BME280;50680;52.626;-8.668;2023-05-08T19:15:53;101246.53;;;16.12;100.00
64352;BME280;50680;52.626;-8.668;2023-05-08T19:18:20;101248.94;;;16.04;100.00
64352;BME280;50680;52.626;-8.668;2023-05-08T19:20:46;101254.38;;;15.90;100.00
64352;BME280;50680;52.626;-8.668;2023-05-08T19:23:13;101253.16;;;15.83;100.00
64352;BME280;50680;52.626;-8.668;2023-05-08T19:25:42;101250.31;;;15.73;100.00
64352;BME280;50680;52.626;-8.668;2023-05-08T19:28:09;101257.44;;;15.59;100.00
64352;BME280;50680;52.626;-8.668;2023-05-08T19:30:36;101254.81;;;15.47;100.00
64352;BME280;50680;52.626;-8.668;2023-05-08T19:33:03;101253.03;;;15.34;100.00
64352;BME280;50680;52.626;-8.668;2023-05-08T19:35:30;101257.63;;;15.19;100.00
64352;BME280;50680;52.626;-8.668;2023-05-08T19:37:57;101267.25;;;15.08;100.00
64352;BME280;50680;52.626;-8.668;2023-05-08T19:40:23;101261.44;;;15.02;100.00
64352;BME280;50680;52.626;-8.668;2023-05-08T19:42:50;101265.53;;;14.81;100.00
64352;BME280;50680;52.626;-8.668;2023-05-08T19:45:17;101265.44;;;14.70;100.00
64352;BME280;50680;52.626;-8.668;2023-05-08T19:47:48;101257.84;;;14.65;100.00
64352;BME280;50680;52.626;-8.668;2023-05-08T19:50:15;101252.56;;;14.65;100.00
64352;BME280;50680;52.626;-8.668;2023-05-08T19:52:44;101261.19;;;14.54;100.00
64352;BME280;50680;52.626;-8.668;2023-05-08T19:55:15;101257.22;;;14.34;100.00
64352;BME280;50680;52.626;-8.668;2023-05-08T19:57:42;101263.22;;;14.23;100.00
64352;BME280;50680;52.626;-8.668;2023-05-08T20:00:09;101259.38;;;14.15;100.00
64352;BME280;50680;52.626;-8.668;2023-05-08T20:02:37;101275.63;;;14.08;100.00
64352;BME280;50680;52.626;-8.668;2023-05-08T20:05:05;101276.13;;;14.01;100.00
64352;BME280;50680;52.626;-8.668;2023-05-08T20:07:48;101275.13;;;13.89;100.00
64352;BME280;50680;52.626;-8.668;2023-05-08T20:10:15;101271.63;;;13.88;100.00
64352;BME280;50680;52.626;-8.668;2023-05-08T20:12:42;101271.63;;;13.88;100.00
64352;BME280;50680;52.626;-8.668;2023-05-08T20:15:09;101277.09;;;13.85;100.00
64352;BME280;50680;52.626;-8.668;2023-05-08T20:17:36;101272.03;;;13.82;100.00
64352;BME280;50680;52.626;-8.668;2023-05-08T20:20:03;101280.88;;;13.81;100.00
64352;BME280;50680;52.626;-8.668;2023-05-08T20:22:30;101280.38;;;13.62;100.00
64352;BME280;50680;52.626;-8.668;2023-05-08T20:24:57;101276.97;;;13.60;100.00
64352;BME280;50680;52.626;-8.668;2023-05-08T20:27:24;101281.78;;;13.67;100.00
64352;BME280;50680;52.626;-8.668;2023-05-08T20:29:50;101285.34;;;13.66;100.00
64352;BME280;50680;52.626;-8.668;2023-05-08T20:32:17;101286.75;;;13.58;100.00
64352;BME280;50680;52.626;-8.668;2023-05-08T20:34:45;101285.09;;;13.57;100.00
64352;BME280;50680;52.626;-8.668;2023-05-08T20:37:12;101295.16;;;13.50;100.00
64352;BME280;50680;52.626;-8.668;2023-05-08T20:39:41;101294.50;;;13.46;100.00
64352;BME280;50680;52.626;-8.668;2023-05-08T20:42:08;101302.31;;;13.48;100.00
64352;BME280;50680;52.626;-8.668;2023-05-08T20:44:35;101306.72;;;13.47;100.00
64352;BME280;50680;52.626;-8.668;2023-05-08T20:47:02;101312.72;;;13.49;100.00
64352;BME280;50680;52.626;-8.668;2023-05-08T20:49:29;101310.56;;;13.27;100.00
64352;BME280;50680;52.626;-8.668;2023-05-08T20:51:55;101315.44;;;13.19;100.00
64352;BME280;50680;52.626;-8.668;2023-05-08T20:54:22;101315.53;;;13.17;100.00
64352;BME280;50680;52.626;-8.668;2023-05-08T20:56:49;101318.44;;;13.13;100.00
64352;BME280;50680;52.626;-8.668;2023-05-08T20:59:16;101327.56;;;13.07;100.00
64352;BME280;50680;52.626;-8.668;2023-05-08T21:01:45;101320.88;;;13.02;100.00
64352;BME280;50680;52.626;-8.668;2023-05-08T21:04:12;101320.13;;;13.00;100.00
64352;BME280;50680;52.626;-8.668;2023-05-08T21:06:39;101329.13;;;12.81;100.00
64352;BME280;50680;52.626;-8.668;2023-05-08T21:09:06;101328.28;;;12.81;100.00
64352;BME280;50680;52.626;-8.668;2023-05-08T21:11:33;101329.38;;;12.76;100.00
64352;BME280;50680;52.626;-8.668;2023-05-08T21:14:00;101332.38;;;12.70;100.00
64352;BME280;50680;52.626;-8.668;2023-05-08T21:16:27;101327.47;;;12.64;100.00
64352;BME280;50680;52.626;-8.668;2023-05-08T21:18:53;101328.00;;;12.55;100.00
64352;BME280;50680;52.626;-8.668;2023-05-08T21:21:23;101338.69;;;12.52;100.00
64352;BME280;50680;52.626;-8.668;2023-05-08T21:23:50;101332.22;;;12.27;100.00
64352;BME280;50680;52.626;-8.668;2023-05-08T21:26:17;101334.72;;;12.45;100.00
64352;BME280;50680;52.626;-8.668;2023-05-08T21:28:45;101332.22;;;12.57;100.00
64352;BME280;50680;52.626;-8.668;2023-05-08T21:31:12;101340.84;;;12.45;100.00
64352;BME280;50680;52.626;-8.668;2023-05-08T21:33:39;101336.03;;;12.37;100.00
64352;BME280;50680;52.626;-8.668;2023-05-08T21:36:06;101314.81;;;12.25;100.00
64352;BME280;50680;52.626;-8.668;2023-05-08T21:38:33;101334.84;;;12.27;100.00
64352;BME280;50680;52.626;-8.668;2023-05-08T21:41:06;101325.28;;;12.10;100.00
64352;BME280;50680;52.626;-8.668;2023-05-08T21:43:34;101330.69;;;12.23;100.00
64352;BME280;50680;52.626;-8.668;2023-05-08T21:46:05;101332.72;;;11.86;100.00
64352;BME280;50680;52.626;-8.668;2023-05-08T21:48:32;101328.06;;;11.91;100.00
64352;BME280;50680;52.626;-8.668;2023-05-08T21:51:00;101319.03;;;11.63;100.00
64352;BME280;50680;52.626;-8.668;2023-05-08T21:53:26;101325.69;;;12.02;100.00
64352;BME280;50680;52.626;-8.668;2023-05-08T21:55:53;101317.72;;;12.20;100.00
64352;BME280;50680;52.626;-8.668;2023-05-08T21:58:20;101324.50;;;12.24;100.00
64352;BME280;50680;52.626;-8.668;2023-05-08T22:00:47;101327.13;;;12.24;100.00
64352;BME280;50680;52.626;-8.668;2023-05-08T22:03:14;101311.81;;;12.16;100.00
64352;BME280;50680;52.626;-8.668;2023-05-08T22:05:41;101307.72;;;12.11;100.00
64352;BME280;50680;52.626;-8.668;2023-05-08T22:08:08;101313.72;;;12.13;100.00
64352;BME280;50680;52.626;-8.668;2023-05-08T22:10:35;101309.94;;;12.18;100.00
64352;BME280;50680;52.626;-8.668;2023-05-08T22:13:02;101303.81;;;12.18;100.00
64352;BME280;50680;52.626;-8.668;2023-05-08T22:15:28;101307.53;;;12.14;100.00
64352;BME280;50680;52.626;-8.668;2023-05-08T22:17:57;101297.38;;;12.08;100.00
64352;BME280;50680;52.626;-8.668;2023-05-08T22:20:24;101297.56;;;12.04;100.00
64352;BME280;50680;52.626;-8.668;2023-05-08T22:22:51;101298.94;;;11.96;100.00
64352;BME280;50680;52.626;-8.668;2023-05-08T22:25:18;101293.81;;;11.77;100.00
64352;BME280;50680;52.626;-8.668;2023-05-08T22:27:47;101288.19;;;11.67;100.00
64352;BME280;50680;52.626;-8.668;2023-05-08T22:30:14;101294.66;;;11.61;100.00
64352;BME280;50680;52.626;-8.668;2023-05-08T22:32:41;101290.81;;;11.51;100.00
64352;BME280;50680;52.626;-8.668;2023-05-08T22:35:08;101283.25;;;11.45;100.00
64352;BME280;50680;52.626;-8.668;2023-05-08T22:37:35;101287.22;;;11.36;100.00
64352;BME280;50680;52.626;-8.668;2023-05-08T22:40:02;101283.25;;;11.29;100.00
64352;BME280;50680;52.626;-8.668;2023-05-08T22:42:29;101289.19;;;11.33;100.00
64352;BME280;50680;52.626;-8.668;2023-05-08T22:44:56;101285.41;;;11.21;100.00
64352;BME280;50680;52.626;-8.668;2023-05-08T22:47:23;101290.44;;;11.25;100.00
64352;BME280;50680;52.626;-8.668;2023-05-08T22:49:51;101283.81;;;11.18;100.00
64352;BME280;50680;52.626;-8.668;2023-05-08T22:52:19;101291.69;;;11.18;100.00
64352;BME280;50680;52.626;-8.668;2023-05-08T22:54:46;101300.09;;;11.25;100.00
64352;BME280;50680;52.626;-8.668;2023-05-08T22:57:12;101289.19;;;11.33;100.00
64352;BME280;50680;52.626;-8.668;2023-05-08T22:59:39;101297.66;;;11.38;100.00
64352;BME280;50680;52.626;-8.668;2023-05-08T23:02:06;101292.41;;;11.38;100.00
64352;BME280;50680;52.626;-8.668;2023-05-08T23:04:33;101301.56;;;11.46;100.00
64352;BME280;50680;52.626;-8.668;2023-05-08T23:07:01;101300.75;;;11.62;100.00
64352;BME280;50680;52.626;-8.668;2023-05-08T23:09:28;101302.44;;;11.79;100.00
64352;BME280;50680;52.626;-8.668;2023-05-08T23:11:56;101301.94;;;11.88;100.00
64352;BME280;50680;52.626;-8.668;2023-05-08T23:14:23;101303.66;;;12.05;100.00
64352;BME280;50680;52.626;-8.668;2023-05-08T23:16:50;101307.97;;;12.22;100.00
64352;BME280;50680;52.626;-8.668;2023-05-08T23:19:17;101307.53;;;12.30;100.00
64352;BME280;50680;52.626;-8.668;2023-05-08T23:21:43;101308.84;;;12.37;100.00
64352;BME280;50680;52.626;-8.668;2023-05-08T23:24:10;101305.72;;;12.46;100.00
64352;BME280;50680;52.626;-8.668;2023-05-08T23:26:37;101306.97;;;12.55;100.00
64352;BME280;50680;52.626;-8.668;2023-05-08T23:29:07;101304.75;;;12.63;100.00
64352;BME280;50680;52.626;-8.668;2023-05-08T23:31:34;101308.97;;;12.66;100.00
64352;BME280;50680;52.626;-8.668;2023-05-08T23:34:01;101310.66;;;12.67;100.00
64352;BME280;50680;52.626;-8.668;2023-05-08T23:36:27;101308.13;;;12.65;100.00
64352;BME280;50680;52.626;-8.668;2023-05-08T23:38:54;101312.91;;;12.58;100.00
64352;BME280;50680;52.626;-8.668;2023-05-08T23:41:21;101307.81;;;12.55;100.00